sensor_id;sensor_type;location;lat;lon;timestamp;P1;durP1;ratioP1;P2;durP2;ratioP2
11220;SDS011;8517;53.546;10.104;2023-11-19T00:01:09;8.10;;;7.03;;
11220;SDS011;8517;53.546;10.104;2023-11-19T00:03:36;8.50;;;6.80;;
11220;SDS011;8517;53.546;10.104;2023-11-19T00:06:03;7.60;;;5.90;;
11220;SDS011;8517;53.546;10.104;2023-11-19T00:08:30;7.23;;;6.37;;
11220;SDS011;8517;53.546;10.104;2023-11-19T00:10:57;7.93;;;6.30;;
11220;SDS011;8517;53.546;10.104;2023-11-19T00:13:24;6.27;;;5.60;;
11220;SDS011;8517;53.546;10.104;2023-11-19T00:15:52;7.63;;;6.03;;
11220;SDS011;8517;53.546;10.104;2023-11-19T00:18:19;6.10;;;5.10;;
11220;SDS011;8517;53.546;10.104;2023-11-19T00:20:45;6.37;;;5.63;;
11220;SDS011;8517;53.546;10.104;2023-11-19T00:23:12;5.23;;;4.73;;
11220;SDS011;8517;53.546;10.104;2023-11-19T00:25:39;5.97;;;5.00;;
11220;SDS011;8517;53.546;10.104;2023-11-19T00:28:06;6.90;;;5.97;;
11220;SDS011;8517;53.546;10.104;2023-11-19T00:30:33;5.57;;;5.07;;
11220;SDS011;8517;53.546;10.104;2023-11-19T00:33:01;5.00;;;4.17;;
11220;SDS011;8517;53.546;10.104;2023-11-19T00:35:27;5.00;;;4.43;;
11220;SDS011;8517;53.546;10.104;2023-11-19T00:37:56;4.97;;;3.87;;
11220;SDS011;8517;53.546;10.104;2023-11-19T00:40:23;4.30;;;3.90;;
11220;SDS011;8517;53.546;10.104;2023-11-19T00:42:50;4.40;;;4.00;;
11220;SDS011;8517;53.546;10.104;2023-11-19T00:45:17;4.80;;;4.00;;
11220;SDS011;8517;53.546;10.104;2023-11-19T00:47:43;5.30;;;4.47;;
11220;SDS011;8517;53.546;10.104;2023-11-19T00:50:11;4.30;;;3.90;;
11220;SDS011;8517;53.546;10.104;2023-11-19T00:52:38;5.30;;;3.80;;
11220;SDS011;8517;53.546;10.104;2023-11-19T00:55:05;2.70;;;2.40;;
11220;SDS011;8517;53.546;10.104;2023-11-19T00:57:32;4.03;;;3.63;;
11220;SDS011;8517;53.546;10.104;2023-11-19T01:00:00;4.70;;;3.97;;
11220;SDS011;8517;53.546;10.104;2023-11-19T01:02:29;4.90;;;4.10;;
11220;SDS011;8517;53.546;10.104;2023-11-19T01:04:55;4.57;;;3.60;;
11220;SDS011;8517;53.546;10.104;2023-11-19T01:07:23;3.10;;;2.90;;
11220;SDS011;8517;53.546;10.104;2023-11-19T01:09:51;3.83;;;3.40;;
11220;SDS011;8517;53.546;10.104;2023-11-19T01:12:19;3.70;;;3.40;;
11220;SDS011;8517;53.546;10.104;2023-11-19T01:14:45;3.40;;;2.97;;
11220;SDS011;8517;53.546;10.104;2023-11-19T01:17:12;3.67;;;3.37;;
11220;SDS011;8517;53.546;10.104;2023-11-19T01:19:39;3.00;;;2.67;;
11220;SDS011;8517;53.546;10.104;2023-11-19T01:22:06;3.20;;;2.90;;
11220;SDS011;8517;53.546;10.104;2023-11-19T01:24:34;3.60;;;2.90;;
11220;SDS011;8517;53.546;10.104;2023-11-19T01:27:00;3.30;;;2.80;;
11220;SDS011;8517;53.546;10.104;2023-11-19T01:29:27;2.70;;;2.50;;
11220;SDS011;8517;53.546;10.104;2023-11-19T01:31:54;2.97;;;2.47;;
11220;SDS011;8517;53.546;10.104;2023-11-19T01:34:21;2.70;;;2.50;;
11220;SDS011;8517;53.546;10.104;2023-11-19T01:36:48;2.73;;;2.33;;
11220;SDS011;8517;53.546;10.104;2023-11-19T01:39:14;2.80;;;2.50;;
11220;SDS011;8517;53.546;10.104;2023-11-19T01:41:43;1.90;;;1.80;;
11220;SDS011;8517;53.546;10.104;2023-11-19T01:44:10;1.80;;;1.70;;
11220;SDS011;8517;53.546;10.104;2023-11-19T01:46:38;2.07;;;1.97;;
11220;SDS011;8517;53.546;10.104;2023-11-19T01:49:07;2.13;;;2.00;;
11220;SDS011;8517;53.546;10.104;2023-11-19T01:51:36;2.10;;;1.90;;
11220;SDS011;8517;53.546;10.104;2023-11-19T01:54:04;2.30;;;2.10;;
11220;SDS011;8517;53.546;10.104;2023-11-19T01:56:31;2.07;;;1.87;;
11220;SDS011;8517;53.546;10.104;2023-11-19T01:58:59;2.00;;;1.87;;
11220;SDS011;8517;53.546;10.104;2023-11-19T02:01:27;2.53;;;2.13;;
11220;SDS011;8517;53.546;10.104;2023-11-19T02:03:54;2.07;;;1.87;;
11220;SDS011;8517;53.546;10.104;2023-11-19T02:06:23;2.07;;;1.97;;
11220;SDS011;8517;53.546;10.104;2023-11-19T02:08:52;1.70;;;1.60;;
11220;SDS011;8517;53.546;10.104;2023-11-19T02:11:18;1.60;;;1.50;;
11220;SDS011;8517;53.546;10.104;2023-11-19T02:13:45;1.90;;;1.80;;
11220;SDS011;8517;53.546;10.104;2023-11-19T02:16:13;2.33;;;2.07;;
11220;SDS011;8517;53.546;10.104;2023-11-19T02:18:40;1.77;;;1.60;;
11220;SDS011;8517;53.546;10.104;2023-11-19T02:21:08;1.20;;;1.10;;
11220;SDS011;8517;53.546;10.104;2023-11-19T02:23:35;2.33;;;2.13;;
11220;SDS011;8517;53.546;10.104;2023-11-19T02:26:03;1.90;;;1.80;;
11220;SDS011;8517;53.546;10.104;2023-11-19T02:28:40;2.10;;;1.90;;
11220;SDS011;8517;53.546;10.104;2023-11-19T02:31:08;2.33;;;2.13;;
11220;SDS011;8517;53.546;10.104;2023-11-19T02:33:35;1.90;;;1.70;;
11220;SDS011;8517;53.546;10.104;2023-11-19T02:36:02;2.07;;;1.90;;
11220;SDS011;8517;53.546;10.104;2023-11-19T02:38:30;1.60;;;1.50;;
11220;SDS011;8517;53.546;10.104;2023-11-19T02:40:57;2.10;;;1.90;;
11220;SDS011;8517;53.546;10.104;2023-11-19T02:43:23;1.83;;;1.73;;
11220;SDS011;8517;53.546;10.104;2023-11-19T02:45:51;1.50;;;1.40;;
11220;SDS011;8517;53.546;10.104;2023-11-19T02:48:20;1.90;;;1.80;;
11220;SDS011;8517;53.546;10.104;2023-11-19T02:50:47;1.97;;;1.77;;
11220;SDS011;8517;53.546;10.104;2023-11-19T02:53:14;1.83;;;1.50;;
11220;SDS011;8517;53.546;10.104;2023-11-19T02:55:41;1.60;;;1.50;;
11220;SDS011;8517;53.546;10.104;2023-11-19T02:58:13;2.00;;;1.80;;
11220;SDS011;8517;53.546;10.104;2023-11-19T03:00:48;1.43;;;1.33;;
11220;SDS011;8517;53.546;10.104;2023-11-19T03:03:23;1.60;;;1.50;;
11220;SDS011;8517;53.546;10.104;2023-11-19T03:05:53;1.90;;;1.80;;
11220;SDS011;8517;53.546;10.104;2023-11-19T03:08:20;3.60;;;1.47;;
11220;SDS011;8517;53.546;10.104;2023-11-19T03:10:47;1.60;;;1.50;;
11220;SDS011;8517;53.546;10.104;2023-11-19T03:13:14;1.70;;;1.60;;
11220;SDS011;8517;53.546;10.104;2023-11-19T03:15:42;1.60;;;1.50;;
11220;SDS011;8517;53.546;10.104;2023-11-19T03:18:09;1.30;;;1.20;;
11220;SDS011;8517;53.546;10.104;2023-11-19T03:20:37;2.00;;;1.80;;
11220;SDS011;8517;53.546;10.104;2023-11-19T03:23:04;1.80;;;1.70;;
11220;SDS011;8517;53.546;10.104;2023-11-19T03:25:31;1.63;;;1.53;;
11220;SDS011;8517;53.546;10.104;2023-11-19T03:27:59;1.60;;;1.50;;
11220;SDS011;8517;53.546;10.104;2023-11-19T03:30:27;1.80;;;1.70;;
11220;SDS011;8517;53.546;10.104;2023-11-19T03:32:54;1.57;;;1.47;;
11220;SDS011;8517;53.546;10.104;2023-11-19T03:35:21;1.87;;;1.77;;
11220;SDS011;8517;53.546;10.104;2023-11-19T03:37:49;1.90;;;1.80;;
11220;SDS011;8517;53.546;10.104;2023-11-19T03:40:16;1.90;;;1.80;;
11220;SDS011;8517;53.546;10.104;2023-11-19T03:42:44;2.23;;;2.00;;
11220;SDS011;8517;53.546;10.104;2023-11-19T03:45:11;2.30;;;2.10;;
11220;SDS011;8517;53.546;10.104;2023-11-19T03:47:37;2.37;;;1.90;;
11220;SDS011;8517;53.546;10.104;2023-11-19T03:50:05;3.00;;;2.20;;
11220;SDS011;8517;53.546;10.104;2023-11-19T03:52:33;2.10;;;2.00;;
11220;SDS011;8517;53.546;10.104;2023-11-19T03:55:02;2.43;;;2.23;;
11220;SDS011;8517;53.546;10.104;2023-11-19T03:57:29;2.30;;;2.10;;
11220;SDS011;8517;53.546;10.104;2023-11-19T03:59:56;2.07;;;1.97;;
11220;SDS011;8517;53.546;10.104;2023-11-19T04:02:24;2.17;;;1.97;;
11220;SDS011;8517;53.546;10.104;2023-11-19T04:04:52;2.50;;;2.30;;
11220;SDS011;8517;53.546;10.104;2023-11-19T04:07:20;2.50;;;2.30;;
11220;SDS011;8517;53.546;10.104;2023-11-19T04:09:47;2.70;;;2.27;;
11220;SDS011;8517;53.546;10.104;2023-11-19T04:12:15;3.60;;;2.40;;
11220;SDS011;8517;53.546;10.104;2023-11-19T04:14:42;2.40;;;2.20;;
11220;SDS011;8517;53.546;10.104;2023-11-19T04:17:09;2.50;;;2.30;;
11220;SDS011;8517;53.546;10.104;2023-11-19T04:19:35;2.40;;;2.20;;
11220;SDS011;8517;53.546;10.104;2023-11-19T04:22:03;2.40;;;2.20;;
11220;SDS011;8517;53.546;10.104;2023-11-19T04:24:30;4.13;;;2.30;;
11220;SDS011;8517;53.546;10.104;2023-11-19T04:26:57;2.30;;;2.10;;
11220;SDS011;8517;53.546;10.104;2023-11-19T04:29:25;2.40;;;2.20;;
11220;SDS011;8517;53.546;10.104;2023-11-19T04:31:51;2.30;;;2.20;;
11220;SDS011;8517;53.546;10.104;2023-11-19T04:34:18;2.10;;;1.53;;
11220;SDS011;8517;53.546;10.104;2023-11-19T04:36:45;2.40;;;2.20;;
11220;SDS011;8517;53.546;10.104;2023-11-19T04:39:12;2.60;;;2.40;;
11220;SDS011;8517;53.546;10.104;2023-11-19T04:41:49;2.80;;;2.60;;
11220;SDS011;8517;53.546;10.104;2023-11-19T04:44:17;2.60;;;2.40;;
11220;SDS011;8517;53.546;10.104;2023-11-19T04:46:45;3.37;;;2.47;;
11220;SDS011;8517;53.546;10.104;2023-11-19T04:49:12;2.63;;;2.43;;
11220;SDS011;8517;53.546;10.104;2023-11-19T04:51:39;2.93;;;2.20;;
11220;SDS011;8517;53.546;10.104;2023-11-19T04:54:07;2.60;;;2.40;;
11220;SDS011;8517;53.546;10.104;2023-11-19T04:56:34;2.57;;;2.37;;
11220;SDS011;8517;53.546;10.104;2023-11-19T04:59:02;4.77;;;3.00;;
11220;SDS011;8517;53.546;10.104;2023-11-19T05:01:28;3.10;;;2.80;;
11220;SDS011;8517;53.546;10.104;2023-11-19T05:03:57;4.30;;;2.73;;
11220;SDS011;8517;53.546;10.104;2023-11-19T05:06:25;3.23;;;2.93;;
11220;SDS011;8517;53.546;10.104;2023-11-19T05:08:54;6.90;;;3.30;;
11220;SDS011;8517;53.546;10.104;2023-11-19T05:11:21;4.60;;;3.33;;
11220;SDS011;8517;53.546;10.104;2023-11-19T05:13:47;4.47;;;3.37;;
11220;SDS011;8517;53.546;10.104;2023-11-19T05:16:15;3.33;;;3.03;;
11220;SDS011;8517;53.546;10.104;2023-11-19T05:18:42;4.63;;;3.90;;
11220;SDS011;8517;53.546;10.104;2023-11-19T05:21:11;3.90;;;3.60;;
11220;SDS011;8517;53.546;10.104;2023-11-19T05:23:38;7.67;;;4.20;;
11220;SDS011;8517;53.546;10.104;2023-11-19T05:26:07;8.23;;;4.50;;
11220;SDS011;8517;53.546;10.104;2023-11-19T05:28:34;4.77;;;4.27;;
11220;SDS011;8517;53.546;10.104;2023-11-19T05:31:00;9.43;;;4.47;;
11220;SDS011;8517;53.546;10.104;2023-11-19T05:33:27;6.40;;;4.43;;
11220;SDS011;8517;53.546;10.104;2023-11-19T05:35:54;6.23;;;4.23;;
11220;SDS011;8517;53.546;10.104;2023-11-19T05:38:23;5.03;;;4.63;;
11220;SDS011;8517;53.546;10.104;2023-11-19T05:40:50;5.83;;;4.30;;
11220;SDS011;8517;53.546;10.104;2023-11-19T05:43:17;8.30;;;4.80;;
11220;SDS011;8517;53.546;10.104;2023-11-19T05:45:43;6.47;;;5.80;;
11220;SDS011;8517;53.546;10.104;2023-11-19T05:48:10;7.60;;;5.10;;
11220;SDS011;8517;53.546;10.104;2023-11-19T05:50:37;11.57;;;5.27;;
11220;SDS011;8517;53.546;10.104;2023-11-19T05:53:04;7.30;;;5.47;;
11220;SDS011;8517;53.546;10.104;2023-11-19T05:55:36;9.13;;;5.87;;
11220;SDS011;8517;53.546;10.104;2023-11-19T05:58:10;7.00;;;5.97;;
11220;SDS011;8517;53.546;10.104;2023-11-19T06:00:37;7.47;;;5.97;;
11220;SDS011;8517;53.546;10.104;2023-11-19T06:03:04;8.80;;;6.43;;
11220;SDS011;8517;53.546;10.104;2023-11-19T06:05:31;8.63;;;6.03;;
11220;SDS011;8517;53.546;10.104;2023-11-19T06:07:58;9.63;;;6.47;;
11220;SDS011;8517;53.546;10.104;2023-11-19T06:10:26;9.87;;;7.13;;
11220;SDS011;8517;53.546;10.104;2023-11-19T06:13:05;12.87;;;7.10;;
11220;SDS011;8517;53.546;10.104;2023-11-19T06:15:35;10.30;;;7.27;;
11220;SDS011;8517;53.546;10.104;2023-11-19T06:18:02;11.70;;;7.40;;
11220;SDS011;8517;53.546;10.104;2023-11-19T06:20:29;9.50;;;7.13;;
11220;SDS011;8517;53.546;10.104;2023-11-19T06:22:56;16.20;;;7.67;;
11220;SDS011;8517;53.546;10.104;2023-11-19T06:25:23;19.70;;;8.87;;
11220;SDS011;8517;53.546;10.104;2023-11-19T06:27:50;13.70;;;9.00;;
11220;SDS011;8517;53.546;10.104;2023-11-19T06:30:18;22.30;;;10.00;;
11220;SDS011;8517;53.546;10.104;2023-11-19T06:32:48;21.20;;;9.97;;
11220;SDS011;8517;53.546;10.104;2023-11-19T06:35:18;23.00;;;9.43;;
11220;SDS011;8517;53.546;10.104;2023-11-19T06:37:44;21.97;;;10.10;;
11220;SDS011;8517;53.546;10.104;2023-11-19T06:40:11;21.37;;;10.13;;
11220;SDS011;8517;53.546;10.104;2023-11-19T06:42:40;23.70;;;9.53;;
11220;SDS011;8517;53.546;10.104;2023-11-19T06:45:07;25.87;;;9.80;;
11220;SDS011;8517;53.546;10.104;2023-11-19T06:47:36;23.17;;;10.07;;
11220;SDS011;8517;53.546;10.104;2023-11-19T06:50:03;26.10;;;9.50;;
11220;SDS011;8517;53.546;10.104;2023-11-19T06:52:30;27.33;;;9.17;;
11220;SDS011;8517;53.546;10.104;2023-11-19T06:54:57;24.63;;;8.00;;
11220;SDS011;8517;53.546;10.104;2023-11-19T06:57:24;24.10;;;8.93;;
11220;SDS011;8517;53.546;10.104;2023-11-19T06:59:51;26.60;;;8.90;;
11220;SDS011;8517;53.546;10.104;2023-11-19T07:02:18;28.30;;;8.83;;
11220;SDS011;8517;53.546;10.104;2023-11-19T07:04:46;23.97;;;8.50;;
11220;SDS011;8517;53.546;10.104;2023-11-19T07:07:13;22.70;;;8.03;;
11220;SDS011;8517;53.546;10.104;2023-11-19T07:09:40;20.37;;;7.07;;
11220;SDS011;8517;53.546;10.104;2023-11-19T07:12:07;19.67;;;7.40;;
11220;SDS011;8517;53.546;10.104;2023-11-19T07:14:34;17.57;;;6.10;;
11220;SDS011;8517;53.546;10.104;2023-11-19T07:17:01;24.60;;;6.87;;
11220;SDS011;8517;53.546;10.104;2023-11-19T07:19:28;14.97;;;6.20;;
11220;SDS011;8517;53.546;10.104;2023-11-19T07:21:56;19.60;;;6.17;;
11220;SDS011;8517;53.546;10.104;2023-11-19T07:24:23;18.67;;;6.53;;
11220;SDS011;8517;53.546;10.104;2023-11-19T07:26:50;22.17;;;6.07;;
11220;SDS011;8517;53.546;10.104;2023-11-19T07:29:17;15.63;;;5.47;;
11220;SDS011;8517;53.546;10.104;2023-11-19T07:31:43;21.20;;;6.40;;
11220;SDS011;8517;53.546;10.104;2023-11-19T07:34:10;20.07;;;5.67;;
11220;SDS011;8517;53.546;10.104;2023-11-19T07:36:39;19.77;;;5.50;;
11220;SDS011;8517;53.546;10.104;2023-11-19T07:39:07;16.13;;;5.20;;
11220;SDS011;8517;53.546;10.104;2023-11-19T07:41:34;15.03;;;4.83;;
11220;SDS011;8517;53.546;10.104;2023-11-19T07:44:00;14.60;;;4.60;;
11220;SDS011;8517;53.546;10.104;2023-11-19T07:46:27;14.90;;;5.07;;
11220;SDS011;8517;53.546;10.104;2023-11-19T07:48:54;22.00;;;5.17;;
11220;SDS011;8517;53.546;10.104;2023-11-19T07:51:20;18.03;;;4.87;;
11220;SDS011;8517;53.546;10.104;2023-11-19T07:53:47;16.23;;;5.77;;
11220;SDS011;8517;53.546;10.104;2023-11-19T07:56:15;18.80;;;5.20;;
11220;SDS011;8517;53.546;10.104;2023-11-19T07:58:42;21.63;;;5.93;;
11220;SDS011;8517;53.546;10.104;2023-11-19T08:01:09;19.33;;;5.13;;
11220;SDS011;8517;53.546;10.104;2023-11-19T08:03:36;25.40;;;6.23;;
11220;SDS011;8517;53.546;10.104;2023-11-19T08:06:03;19.53;;;5.37;;
11220;SDS011;8517;53.546;10.104;2023-11-19T08:08:32;21.37;;;5.30;;
11220;SDS011;8517;53.546;10.104;2023-11-19T08:10:59;21.13;;;5.63;;
11220;SDS011;8517;53.546;10.104;2023-11-19T08:13:29;21.53;;;5.30;;
11220;SDS011;8517;53.546;10.104;2023-11-19T08:15:59;37.40;;;19.50;;
11220;SDS011;8517;53.546;10.104;2023-11-19T08:18:26;29.30;;;6.33;;
11220;SDS011;8517;53.546;10.104;2023-11-19T08:20:53;22.27;;;5.73;;
11220;SDS011;8517;53.546;10.104;2023-11-19T08:23:21;19.27;;;4.73;;
11220;SDS011;8517;53.546;10.104;2023-11-19T08:25:53;17.03;;;4.70;;
11220;SDS011;8517;53.546;10.104;2023-11-19T08:28:22;21.97;;;5.30;;
11220;SDS011;8517;53.546;10.104;2023-11-19T08:30:51;20.10;;;4.37;;
11220;SDS011;8517;53.546;10.104;2023-11-19T08:33:17;22.53;;;4.93;;
11220;SDS011;8517;53.546;10.104;2023-11-19T08:35:47;23.27;;;5.37;;
11220;SDS011;8517;53.546;10.104;2023-11-19T08:38:14;23.97;;;5.50;;
11220;SDS011;8517;53.546;10.104;2023-11-19T08:40:41;25.53;;;6.07;;
11220;SDS011;8517;53.546;10.104;2023-11-19T08:43:08;25.47;;;5.80;;
11220;SDS011;8517;53.546;10.104;2023-11-19T08:45:34;19.37;;;5.00;;
11220;SDS011;8517;53.546;10.104;2023-11-19T08:48:03;21.33;;;4.43;;
11220;SDS011;8517;53.546;10.104;2023-11-19T08:50:30;16.80;;;4.43;;
11220;SDS011;8517;53.546;10.104;2023-11-19T08:53:00;25.50;;;5.27;;
11220;SDS011;8517;53.546;10.104;2023-11-19T08:55:31;21.13;;;5.73;;
11220;SDS011;8517;53.546;10.104;2023-11-19T08:57:58;16.37;;;4.70;;
11220;SDS011;8517;53.546;10.104;2023-11-19T09:00:27;18.43;;;4.63;;
11220;SDS011;8517;53.546;10.104;2023-11-19T09:02:55;18.10;;;4.63;;
11220;SDS011;8517;53.546;10.104;2023-11-19T09:05:25;28.03;;;5.97;;
11220;SDS011;8517;53.546;10.104;2023-11-19T09:07:52;25.73;;;5.20;;
11220;SDS011;8517;53.546;10.104;2023-11-19T09:10:19;22.27;;;4.93;;
11220;SDS011;8517;53.546;10.104;2023-11-19T09:12:46;26.43;;;5.60;;
11220;SDS011;8517;53.546;10.104;2023-11-19T09:15:13;25.70;;;5.47;;
11220;SDS011;8517;53.546;10.104;2023-11-19T09:17:40;25.63;;;5.77;;
11220;SDS011;8517;53.546;10.104;2023-11-19T09:20:07;22.27;;;5.27;;
11220;SDS011;8517;53.546;10.104;2023-11-19T09:22:39;22.17;;;4.90;;
11220;SDS011;8517;53.546;10.104;2023-11-19T09:25:06;24.80;;;5.50;;
11220;SDS011;8517;53.546;10.104;2023-11-19T09:27:34;25.97;;;5.87;;
11220;SDS011;8517;53.546;10.104;2023-11-19T09:30:01;31.80;;;7.27;;
11220;SDS011;8517;53.546;10.104;2023-11-19T09:32:28;24.53;;;6.23;;
11220;SDS011;8517;53.546;10.104;2023-11-19T09:34:55;31.00;;;10.47;;
11220;SDS011;8517;53.546;10.104;2023-11-19T09:37:22;24.37;;;6.10;;
11220;SDS011;8517;53.546;10.104;2023-11-19T09:39:50;20.37;;;4.77;;
11220;SDS011;8517;53.546;10.104;2023-11-19T09:42:18;26.80;;;5.77;;
11220;SDS011;8517;53.546;10.104;2023-11-19T09:44:45;20.90;;;5.23;;
11220;SDS011;8517;53.546;10.104;2023-11-19T09:47:14;30.80;;;5.80;;
11220;SDS011;8517;53.546;10.104;2023-11-19T09:49:43;28.93;;;5.70;;
11220;SDS011;8517;53.546;10.104;2023-11-19T09:52:10;15.60;;;4.33;;
11220;SDS011;8517;53.546;10.104;2023-11-19T09:54:37;26.87;;;5.23;;
11220;SDS011;8517;53.546;10.104;2023-11-19T09:57:05;18.50;;;4.20;;
11220;SDS011;8517;53.546;10.104;2023-11-19T09:59:35;24.60;;;6.17;;
11220;SDS011;8517;53.546;10.104;2023-11-19T10:02:04;19.73;;;4.07;;
11220;SDS011;8517;53.546;10.104;2023-11-19T10:04:31;28.20;;;6.97;;
11220;SDS011;8517;53.546;10.104;2023-11-19T10:07:02;30.30;;;7.40;;
11220;SDS011;8517;53.546;10.104;2023-11-19T10:09:35;23.03;;;5.70;;
11220;SDS011;8517;53.546;10.104;2023-11-19T10:12:02;15.37;;;3.77;;
11220;SDS011;8517;53.546;10.104;2023-11-19T10:14:31;27.57;;;6.17;;
11220;SDS011;8517;53.546;10.104;2023-11-19T10:17:01;32.23;;;9.13;;
11220;SDS011;8517;53.546;10.104;2023-11-19T10:19:29;24.80;;;5.90;;
11220;SDS011;8517;53.546;10.104;2023-11-19T10:22:01;27.23;;;6.30;;
11220;SDS011;8517;53.546;10.104;2023-11-19T10:25:18;20.97;;;4.40;;
11220;SDS011;8517;53.546;10.104;2023-11-19T10:30:20;22.03;;;5.13;;
11220;SDS011;8517;53.546;10.104;2023-11-19T10:32:58;32.40;;;5.40;;
11220;SDS011;8517;53.546;10.104;2023-11-19T10:35:32;19.73;;;5.37;;
11220;SDS011;8517;53.546;10.104;2023-11-19T10:38:00;21.77;;;3.97;;
11220;SDS011;8517;53.546;10.104;2023-11-19T10:40:40;27.63;;;6.23;;
11220;SDS011;8517;53.546;10.104;2023-11-19T10:43:08;30.13;;;6.17;;
11220;SDS011;8517;53.546;10.104;2023-11-19T10:45:35;24.83;;;5.10;;
11220;SDS011;8517;53.546;10.104;2023-11-19T10:48:03;22.43;;;5.60;;
11220;SDS011;8517;53.546;10.104;2023-11-19T10:50:32;28.07;;;5.50;;
11220;SDS011;8517;53.546;10.104;2023-11-19T10:52:59;26.23;;;5.50;;
11220;SDS011;8517;53.546;10.104;2023-11-19T10:55:27;29.97;;;6.10;;
11220;SDS011;8517;53.546;10.104;2023-11-19T10:57:58;26.27;;;5.07;;
11220;SDS011;8517;53.546;10.104;2023-11-19T11:00:28;23.80;;;5.43;;
11220;SDS011;8517;53.546;10.104;2023-11-19T11:03:00;30.30;;;5.83;;
11220;SDS011;8517;53.546;10.104;2023-11-19T11:05:28;18.97;;;4.47;;
11220;SDS011;8517;53.546;10.104;2023-11-19T11:11:13;26.20;;;5.60;;
11220;SDS011;8517;53.546;10.104;2023-11-19T11:13:46;26.03;;;5.20;;
11220;SDS011;8517;53.546;10.104;2023-11-19T11:16:17;24.97;;;4.93;;
11220;SDS011;8517;53.546;10.104;2023-11-19T11:18:46;28.27;;;6.20;;
11220;SDS011;8517;53.546;10.104;2023-11-19T11:21:15;23.63;;;5.13;;
11220;SDS011;8517;53.546;10.104;2023-11-19T11:23:52;28.00;;;5.70;;
11220;SDS011;8517;53.546;10.104;2023-11-19T11:26:46;23.33;;;5.00;;
11220;SDS011;8517;53.546;10.104;2023-11-19T11:29:35;20.80;;;5.30;;
11220;SDS011;8517;53.546;10.104;2023-11-19T11:32:12;25.27;;;5.53;;
11220;SDS011;8517;53.546;10.104;2023-11-19T11:34:50;24.20;;;5.40;;
11220;SDS011;8517;53.546;10.104;2023-11-19T11:37:25;24.23;;;4.87;;
11220;SDS011;8517;53.546;10.104;2023-11-19T11:39:58;21.10;;;5.30;;
11220;SDS011;8517;53.546;10.104;2023-11-19T11:42:34;20.40;;;4.50;;
11220;SDS011;8517;53.546;10.104;2023-11-19T11:45:02;23.47;;;5.20;;
11220;SDS011;8517;53.546;10.104;2023-11-19T11:50:53;21.30;;;4.33;;
11220;SDS011;8517;53.546;10.104;2023-11-19T11:53:23;23.63;;;5.00;;
11220;SDS011;8517;53.546;10.104;2023-11-19T11:55:52;22.00;;;5.17;;
11220;SDS011;8517;53.546;10.104;2023-11-19T11:58:21;28.23;;;5.83;;
11220;SDS011;8517;53.546;10.104;2023-11-19T12:00:53;28.10;;;6.07;;
11220;SDS011;8517;53.546;10.104;2023-11-19T12:03:20;26.07;;;6.03;;
11220;SDS011;8517;53.546;10.104;2023-11-19T12:05:48;24.10;;;5.13;;
11220;SDS011;8517;53.546;10.104;2023-11-19T12:08:18;24.33;;;4.83;;
11220;SDS011;8517;53.546;10.104;2023-11-19T12:10:50;36.77;;;6.30;;
11220;SDS011;8517;53.546;10.104;2023-11-19T12:13:19;21.83;;;5.47;;
11220;SDS011;8517;53.546;10.104;2023-11-19T12:18:36;26.90;;;6.00;;
11220;SDS011;8517;53.546;10.104;2023-11-19T12:21:06;27.97;;;5.37;;
11220;SDS011;8517;53.546;10.104;2023-11-19T12:23:36;22.33;;;5.27;;
11220;SDS011;8517;53.546;10.104;2023-11-19T12:26:20;22.10;;;4.90;;
11220;SDS011;8517;53.546;10.104;2023-11-19T12:28:58;20.20;;;4.60;;
11220;SDS011;8517;53.546;10.104;2023-11-19T12:31:26;21.47;;;4.93;;
11220;SDS011;8517;53.546;10.104;2023-11-19T12:33:52;23.80;;;4.93;;
11220;SDS011;8517;53.546;10.104;2023-11-19T12:36:20;22.97;;;5.13;;
11220;SDS011;8517;53.546;10.104;2023-11-19T12:38:49;25.13;;;4.87;;
11220;SDS011;8517;53.546;10.104;2023-11-19T12:41:16;21.07;;;5.33;;
11220;SDS011;8517;53.546;10.104;2023-11-19T12:43:45;21.60;;;4.43;;
11220;SDS011;8517;53.546;10.104;2023-11-19T12:46:20;26.43;;;5.20;;
11220;SDS011;8517;53.546;10.104;2023-11-19T12:48:57;18.57;;;4.53;;
11220;SDS011;8517;53.546;10.104;2023-11-19T12:51:27;22.60;;;5.00;;
11220;SDS011;8517;53.546;10.104;2023-11-19T12:53:58;18.67;;;4.90;;
11220;SDS011;8517;53.546;10.104;2023-11-19T12:56:25;21.70;;;4.73;;
11220;SDS011;8517;53.546;10.104;2023-11-19T12:58:52;22.60;;;4.70;;
11220;SDS011;8517;53.546;10.104;2023-11-19T13:01:20;19.70;;;4.10;;
11220;SDS011;8517;53.546;10.104;2023-11-19T13:03:47;23.47;;;4.60;;
11220;SDS011;8517;53.546;10.104;2023-11-19T13:06:16;25.10;;;5.13;;
11220;SDS011;8517;53.546;10.104;2023-11-19T13:08:46;22.73;;;4.70;;
11220;SDS011;8517;53.546;10.104;2023-11-19T13:11:31;26.50;;;4.97;;
11220;SDS011;8517;53.546;10.104;2023-11-19T13:13:59;21.03;;;5.30;;
11220;SDS011;8517;53.546;10.104;2023-11-19T13:16:29;20.60;;;4.50;;
11220;SDS011;8517;53.546;10.104;2023-11-19T13:18:56;27.03;;;5.70;;
11220;SDS011;8517;53.546;10.104;2023-11-19T13:21:25;22.97;;;5.40;;
11220;SDS011;8517;53.546;10.104;2023-11-19T13:23:51;20.57;;;4.83;;
11220;SDS011;8517;53.546;10.104;2023-11-19T13:26:18;22.80;;;4.87;;
11220;SDS011;8517;53.546;10.104;2023-11-19T13:28:48;19.30;;;4.67;;
11220;SDS011;8517;53.546;10.104;2023-11-19T13:31:14;21.50;;;5.00;;
11220;SDS011;8517;53.546;10.104;2023-11-19T13:33:41;22.47;;;5.17;;
11220;SDS011;8517;53.546;10.104;2023-11-19T13:36:08;24.83;;;4.93;;
11220;SDS011;8517;53.546;10.104;2023-11-19T13:38:36;23.10;;;5.30;;
11220;SDS011;8517;53.546;10.104;2023-11-19T13:41:03;26.10;;;5.20;;
11220;SDS011;8517;53.546;10.104;2023-11-19T13:43:30;21.80;;;4.67;;
11220;SDS011;8517;53.546;10.104;2023-11-19T13:45:59;18.00;;;4.63;;
11220;SDS011;8517;53.546;10.104;2023-11-19T13:48:26;22.67;;;4.33;;
11220;SDS011;8517;53.546;10.104;2023-11-19T13:50:54;22.60;;;4.97;;
11220;SDS011;8517;53.546;10.104;2023-11-19T13:53:21;20.73;;;4.10;;
11220;SDS011;8517;53.546;10.104;2023-11-19T13:55:48;26.30;;;5.77;;
11220;SDS011;8517;53.546;10.104;2023-11-19T13:58:15;25.13;;;6.37;;
11220;SDS011;8517;53.546;10.104;2023-11-19T14:00:42;23.67;;;5.37;;
11220;SDS011;8517;53.546;10.104;2023-11-19T14:03:17;25.73;;;5.43;;
11220;SDS011;8517;53.546;10.104;2023-11-19T14:05:44;22.60;;;5.47;;
11220;SDS011;8517;53.546;10.104;2023-11-19T14:10:58;20.60;;;4.20;;
11220;SDS011;8517;53.546;10.104;2023-11-19T14:13:38;19.07;;;4.73;;
11220;SDS011;8517;53.546;10.104;2023-11-19T14:16:28;19.17;;;4.90;;
11220;SDS011;8517;53.546;10.104;2023-11-19T14:19:29;21.00;;;4.13;;
11220;SDS011;8517;53.546;10.104;2023-11-19T14:21:56;14.77;;;3.40;;
11220;SDS011;8517;53.546;10.104;2023-11-19T14:24:24;22.90;;;5.40;;
11220;SDS011;8517;53.546;10.104;2023-11-19T14:26:51;25.07;;;4.90;;
11220;SDS011;8517;53.546;10.104;2023-11-19T14:29:19;20.03;;;4.53;;
11220;SDS011;8517;53.546;10.104;2023-11-19T14:31:46;17.93;;;4.20;;
11220;SDS011;8517;53.546;10.104;2023-11-19T14:34:12;22.10;;;4.77;;
11220;SDS011;8517;53.546;10.104;2023-11-19T14:36:44;15.33;;;3.93;;
11220;SDS011;8517;53.546;10.104;2023-11-19T14:39:21;17.70;;;3.97;;
11220;SDS011;8517;53.546;10.104;2023-11-19T14:41:48;17.63;;;4.23;;
11220;SDS011;8517;53.546;10.104;2023-11-19T14:44:18;19.07;;;4.43;;
11220;SDS011;8517;53.546;10.104;2023-11-19T14:46:48;21.73;;;4.00;;
11220;SDS011;8517;53.546;10.104;2023-11-19T14:49:15;21.70;;;5.17;;
11220;SDS011;8517;53.546;10.104;2023-11-19T14:51:43;18.23;;;4.80;;
11220;SDS011;8517;53.546;10.104;2023-11-19T14:54:13;23.60;;;4.40;;
11220;SDS011;8517;53.546;10.104;2023-11-19T14:56:41;19.73;;;4.27;;
11220;SDS011;8517;53.546;10.104;2023-11-19T14:59:12;18.30;;;4.33;;
11220;SDS011;8517;53.546;10.104;2023-11-19T15:02:11;21.40;;;4.20;;
11220;SDS011;8517;53.546;10.104;2023-11-19T15:05:03;16.13;;;4.43;;